Time;durP1;ratioP1;P1;durP2;ratioP2;P2;SDS_P1;SDS_P2;PMS_P1;PMS_P2;Temp;Humidity;BMP_temperature;BMP_pressure;BME280_temperature;BME280_humidity;BME280_pressure;Samples;Min_cycle;Max_cycle;Signal;HPM_P1;HPM_P2
2023/09/10 00:01:38;;;;;;;8.50;5.68;;;20.80;99.90;;;;;;5093351;28;20416;-66
2023/09/10 00:04:04;;;;;;;9.63;5.53;;;20.70;99.90;;;;;;5093171;28;20052;-67
2023/09/10 00:06:32;;;;;;;8.00;5.30;;;20.70;99.90;;;;;;5092560;28;20048;-67
2023/09/10 00:08:58;;;;;;;14.98;5.60;;;20.70;99.90;;;;;;5092850;28;20044;-67
2023/09/10 00:11:25;;;;;;;14.93;5.80;;;20.60;99.90;;;;;;5092629;28;20458;-68
2023/09/10 00:13:50;;;;;;;12.98;5.88;;;20.70;99.90;;;;;;5091737;28;20381;-68
2023/09/10 00:16:16;;;;;;;8.13;5.60;;;20.60;99.90;;;;;;5091675;28;20035;-67
2023/09/10 00:18:42;;;;;;;9.15;5.85;;;20.50;99.90;;;;;;5093016;28;20096;-68
2023/09/10 00:21:07;;;;;;;14.40;6.00;;;20.50;99.90;;;;;;5091594;28;20127;-67
2023/09/10 00:23:33;;;;;;;12.25;6.10;;;20.50;99.90;;;;;;5091272;28;20028;-67
2023/09/10 00:25:59;;;;;;;10.38;5.85;;;20.40;99.90;;;;;;5092643;28;20028;-69
2023/09/10 00:28:24;;;;;;;8.80;5.75;;;20.50;99.90;;;;;;5092714;28;20123;-69
2023/09/10 00:30:53;;;;;;;9.40;5.88;;;20.50;99.90;;;;;;5092762;28;20101;-68
2023/09/10 00:33:19;;;;;;;8.52;5.82;;;20.40;99.90;;;;;;5092439;28;20035;-67
2023/09/10 00:35:45;;;;;;;8.05;5.47;;;20.40;99.90;;;;;;5092204;28;20028;-68
2023/09/10 00:38:11;;;;;;;11.90;6.05;;;20.30;99.90;;;;;;5092327;28;20123;-67
2023/09/10 00:40:36;;;;;;;9.45;5.93;;;20.30;99.90;;;;;;5092626;28;20039;-68
2023/09/10 00:43:02;;;;;;;9.13;6.18;;;20.20;99.90;;;;;;5092484;28;20548;-68
2023/09/10 00:45:29;;;;;;;10.93;6.30;;;20.30;99.90;;;;;;5091275;28;20456;-68
2023/09/10 00:47:55;;;;;;;9.52;5.85;;;20.30;99.90;;;;;;5092093;28;20032;-69
2023/09/10 00:50:21;;;;;;;10.57;6.20;;;20.20;99.90;;;;;;5092129;28;20093;-67
2023/09/10 00:52:52;;;;;;;9.57;5.65;;;20.20;99.90;;;;;;5092241;28;20128;-69
2023/09/10 00:55:21;;;;;;;9.27;5.93;;;20.20;99.90;;;;;;5092218;28;20354;-68
2023/09/10 00:57:46;;;;;;;8.93;5.80;;;20.10;99.90;;;;;;5092654;28;20369;-68
2023/09/10 01:00:13;;;;;;;10.25;6.07;;;20.10;99.90;;;;;;5091942;28;20280;-69
2023/09/10 01:02:43;;;;;;;10.80;5.85;;;20.10;99.90;;;;;;5091051;28;20047;-69
2023/09/10 01:05:12;;;;;;;10.00;5.35;;;20.10;99.90;;;;;;5092019;28;20464;-67
2023/09/10 01:07:38;;;;;;;8.82;5.65;;;20.10;99.90;;;;;;5091379;28;20032;-68
2023/09/10 01:10:08;;;;;;;8.30;5.25;;;20.00;99.90;;;;;;5092030;28;20089;-68
2023/09/10 01:12:43;;;;;;;11.00;5.60;;;20.00;99.90;;;;;;5091712;28;20047;-70
2023/09/10 01:15:30;;;;;;;26.35;15.90;;;20.00;99.90;;;;;;5091688;28;20077;-67
2023/09/10 01:18:04;;;;;;;20.77;11.32;;;19.90;99.90;;;;;;5091867;28;20489;-69
2023/09/10 01:20:39;;;;;;;8.80;6.65;;;20.00;99.90;;;;;;5091664;28;20165;-69
2023/09/10 01:23:19;;;;;;;10.15;5.43;;;19.90;99.90;;;;;;5091640;28;20039;-68
2023/09/10 01:25:46;;;;;;;13.30;5.22;;;19.90;99.90;;;;;;5090298;28;20084;-69
2023/09/10 01:28:11;;;;;;;9.82;5.47;;;19.90;99.90;;;;;;5091484;28;20054;-67
2023/09/10 01:30:37;;;;;;;9.65;5.45;;;19.80;99.90;;;;;;5092240;28;20052;-68
2023/09/10 01:33:18;;;;;;;10.57;5.72;;;19.90;99.90;;;;;;5091409;28;20074;-68
2023/09/10 01:36:02;;;;;;;9.90;5.53;;;19.80;99.90;;;;;;5083494;28;20024;-68
2023/09/10 01:38:55;;;;;;;9.50;5.47;;;19.80;99.90;;;;;;5070221;28;20524;-67
2023/09/10 01:41:21;;;;;;;8.25;5.43;;;19.70;99.90;;;;;;5070981;28;20445;-67
2023/09/10 01:43:48;;;;;;;13.85;5.13;;;19.80;99.90;;;;;;5071087;28;20035;-68
2023/09/10 01:46:15;;;;;;;8.48;5.38;;;19.70;99.90;;;;;;5070976;28;20466;-68
2023/09/10 01:48:42;;;;;;;11.63;6.30;;;19.70;99.90;;;;;;5071686;28;20379;-67
2023/09/10 01:51:08;;;;;;;9.05;5.53;;;19.60;99.90;;;;;;5071153;28;20037;-67
2023/09/10 01:53:33;;;;;;;9.80;6.13;;;19.70;99.90;;;;;;5071059;28;20086;-67
2023/09/10 01:55:59;;;;;;;9.65;5.72;;;19.70;99.90;;;;;;5070928;28;20078;-67
2023/09/10 01:58:25;;;;;;;7.30;5.43;;;19.70;99.90;;;;;;5071131;28;20051;-68
2023/09/10 02:00:51;;;;;;;7.80;4.93;;;19.70;99.90;;;;;;5071205;28;20110;-69
2023/09/10 02:03:17;;;;;;;8.50;5.47;;;19.60;99.90;;;;;;5071119;28;20060;-67
2023/09/10 02:05:43;;;;;;;8.02;5.88;;;19.60;99.90;;;;;;5070982;28;20032;-69
2023/09/10 02:08:09;;;;;;;12.02;5.53;;;19.60;99.90;;;;;;5070848;28;20059;-69
2023/09/10 02:10:35;;;;;;;8.32;5.57;;;19.60;99.90;;;;;;5071225;28;20056;-69
2023/09/10 02:13:01;;;;;;;9.00;5.97;;;19.60;99.90;;;;;;5073687;28;20362;-68
2023/09/10 02:15:27;;;;;;;9.25;6.35;;;19.60;99.90;;;;;;5077663;28;20039;-69
2023/09/10 02:17:58;;;;;;;8.52;5.82;;;19.60;99.90;;;;;;5077554;28;20503;-70
2023/09/10 02:20:24;;;;;;;8.30;5.22;;;19.60;99.90;;;;;;5077379;28;20021;-69
2023/09/10 02:22:49;;;;;;;16.58;6.40;;;19.60;99.90;;;;;;5077506;28;20602;-68
2023/09/10 02:25:16;;;;;;;13.65;6.82;;;19.60;99.90;;;;;;5077725;28;20024;-68
2023/09/10 02:27:41;;;;;;;11.85;5.32;;;19.50;99.90;;;;;;5077889;28;20084;-69
2023/09/10 02:30:08;;;;;;;9.35;5.90;;;19.60;99.90;;;;;;5077517;28;20517;-69
2023/09/10 02:32:34;;;;;;;9.38;6.15;;;19.60;99.90;;;;;;5076128;28;20132;-69
2023/09/10 02:35:00;;;;;;;9.63;6.70;;;19.50;99.90;;;;;;5077319;28;20105;-67
2023/09/10 02:37:26;;;;;;;9.27;7.20;;;19.60;99.90;;;;;;5077477;28;20429;-68
2023/09/10 02:39:51;;;;;;;12.48;7.35;;;19.70;99.90;;;;;;5076619;28;20036;-68
2023/09/10 02:42:17;;;;;;;11.30;7.65;;;19.80;99.90;;;;;;5077536;28;20540;-68
2023/09/10 02:44:43;;;;;;;16.80;8.35;;;19.90;99.90;;;;;;5077407;28;20024;-68
2023/09/10 02:47:09;;;;;;;13.18;8.32;;;19.90;99.90;;;;;;5077215;28;20125;-68
2023/09/10 02:49:34;;;;;;;20.90;9.02;;;20.00;99.90;;;;;;5076124;28;20466;-68
2023/09/10 02:52:00;;;;;;;17.42;9.50;;;20.00;99.90;;;;;;5076553;28;20039;-69
2023/09/10 02:54:27;;;;;;;15.95;10.02;;;20.00;99.90;;;;;;5077213;28;20039;-69
2023/09/10 02:56:53;;;;;;;16.98;10.30;;;20.10;99.90;;;;;;5077297;28;20029;-68
2023/09/10 02:59:21;;;;;;;17.48;10.75;;;20.10;99.90;;;;;;5077128;28;20032;-68
2023/09/10 03:01:47;;;;;;;24.52;13.45;;;20.20;99.90;;;;;;5077425;28;20040;-68
2023/09/10 03:04:14;;;;;;;19.05;12.02;;;20.20;99.90;;;;;;5077024;28;20067;-68
2023/09/10 03:06:42;;;;;;;21.85;13.18;;;20.30;99.90;;;;;;5077250;28;20060;-68
2023/09/10 03:09:08;;;;;;;21.25;14.35;;;20.20;99.90;;;;;;5076815;28;20052;-68
2023/09/10 03:11:37;;;;;;;20.88;13.93;;;20.30;99.90;;;;;;5075541;28;20105;-69
2023/09/10 03:14:03;;;;;;;26.60;14.82;;;20.30;99.90;;;;;;5076992;28;20039;-67
2023/09/10 03:16:28;;;;;;;15.95;12.57;;;20.30;99.90;;;;;;5077121;28;20028;-68
2023/09/10 03:18:54;;;;;;;13.85;9.63;;;20.30;99.90;;;;;;5077166;28;20021;-68
2023/09/10 03:21:20;;;;;;;17.80;11.30;;;20.40;99.90;;;;;;5076815;28;20037;-69
2023/09/10 03:23:46;;;;;;;21.92;11.98;;;20.40;99.90;;;;;;5076577;28;20036;-69
2023/09/10 03:26:12;;;;;;;24.33;11.32;;;20.50;99.90;;;;;;5072813;28;20048;-69
2023/09/10 03:28:37;;;;;;;16.85;11.38;;;20.50;99.90;;;;;;5073978;28;20055;-69
2023/09/10 03:31:03;;;;;;;20.73;13.43;;;20.50;99.90;;;;;;5073655;28;20446;-68
2023/09/10 03:33:29;;;;;;;24.80;14.57;;;20.50;99.90;;;;;;5073638;28;20028;-68
2023/09/10 03:35:54;;;;;;;25.08;15.30;;;20.50;99.90;;;;;;5073415;28;20120;-69
2023/09/10 03:38:21;;;;;;;27.60;18.52;;;20.40;99.90;;;;;;5073341;28;20066;-68
2023/09/10 03:40:46;;;;;;;27.83;16.35;;;20.50;99.90;;;;;;5072365;28;20063;-68
2023/09/10 03:43:12;;;;;;;16.45;11.32;;;20.50;99.90;;;;;;5073538;28;20494;-67
2023/09/10 03:45:37;;;;;;;16.17;9.38;;;20.50;99.90;;;;;;5074010;28;20111;-68
2023/09/10 03:48:03;;;;;;;22.92;10.80;;;20.50;99.90;;;;;;5072108;28;20029;-67
2023/09/10 03:50:29;;;;;;;29.75;15.40;;;20.40;99.90;;;;;;5073257;28;20416;-66
2023/09/10 03:52:55;;;;;;;32.40;20.80;;;20.40;99.90;;;;;;5073165;28;20028;-69
2023/09/10 03:55:20;;;;;;;30.80;20.50;;;20.20;99.90;;;;;;5072809;28;20035;-67
2023/09/10 03:57:46;;;;;;;32.78;23.50;;;20.30;99.90;;;;;;5073806;28;20021;-67
2023/09/10 04:00:12;;;;;;;33.17;22.52;;;20.30;99.90;;;;;;5072927;28;20035;-68
2023/09/10 04:02:38;;;;;;;32.47;22.27;;;20.30;99.90;;;;;;5073134;28;20033;-68
2023/09/10 04:05:04;;;;;;;28.17;19.25;;;20.40;99.90;;;;;;5072929;28;20024;-67
2023/09/10 04:07:30;;;;;;;25.23;17.25;;;20.30;99.90;;;;;;5072611;28;20044;-68
2023/09/10 04:09:56;;;;;;;31.67;17.95;;;20.40;99.90;;;;;;5073291;28;20447;-68
2023/09/10 04:12:22;;;;;;;26.05;16.85;;;20.40;99.90;;;;;;5072607;28;20064;-68
2023/09/10 04:14:47;;;;;;;25.58;18.38;;;20.30;99.90;;;;;;5072701;28;20412;-68
2023/09/10 04:17:17;;;;;;;26.90;17.98;;;20.40;99.90;;;;;;5072855;28;20056;-68
2023/09/10 04:19:43;;;;;;;34.97;20.65;;;20.30;99.90;;;;;;5072353;28;20044;-68
2023/09/10 04:22:08;;;;;;;38.63;23.88;;;20.30;99.90;;;;;;5072604;28;20017;-68
2023/09/10 04:24:34;;;;;;;38.13;22.52;;;20.30;99.90;;;;;;5072680;28;20028;-68
2023/09/10 04:27:00;;;;;;;30.45;20.90;;;20.30;99.90;;;;;;5072404;28;20032;-68
2023/09/10 04:29:26;;;;;;;28.08;19.38;;;20.30;99.90;;;;;;5072279;28;20040;-68
2023/09/10 04:31:51;;;;;;;33.90;20.45;;;20.30;99.90;;;;;;5072168;28;20048;-68
2023/09/10 04:34:17;;;;;;;34.42;21.58;;;20.30;99.90;;;;;;5072203;28;20059;-67
2023/09/10 04:36:43;;;;;;;30.92;20.83;;;20.30;99.90;;;;;;5071426;28;20373;-67
2023/09/10 04:39:09;;;;;;;31.35;20.98;;;20.20;99.90;;;;;;5072062;28;20486;-68
2023/09/10 04:41:35;;;;;;;30.08;21.70;;;20.30;99.90;;;;;;5072208;28;20035;-68
2023/09/10 04:44:02;;;;;;;32.47;21.25;;;20.30;99.90;;;;;;5071975;28;20038;-68
2023/09/10 04:46:27;;;;;;;35.55;20.35;;;20.20;99.90;;;;;;5072044;28;20451;-67
2023/09/10 04:48:54;;;;;;;41.03;22.77;;;20.30;99.90;;;;;;5072297;28;20032;-68
2023/09/10 04:51:19;;;;;;;40.70;23.67;;;20.20;99.90;;;;;;5071826;28;20029;-68
2023/09/10 04:53:45;;;;;;;34.80;24.27;;;20.30;99.90;;;;;;5071937;28;20025;-68
2023/09/10 04:56:11;;;;;;;38.08;24.67;;;20.20;99.90;;;;;;5071082;28;20139;-66
2023/09/10 04:58:36;;;;;;;41.65;23.20;;;20.20;99.90;;;;;;5071915;28;20032;-68
2023/09/10 05:01:03;;;;;;;31.65;22.33;;;20.10;99.90;;;;;;5072170;28;20178;-67
2023/09/10 05:03:29;;;;;;;38.85;25.45;;;20.20;99.90;;;;;;5071853;28;20059;-68
2023/09/10 05:05:59;;;;;;;45.58;30.17;;;20.30;99.90;;;;;;5071752;28;20419;-67
2023/09/10 05:08:26;;;;;;;46.90;28.00;;;20.20;99.90;;;;;;5071573;28;20406;-67
2023/09/10 05:10:52;;;;;;;50.35;31.70;;;20.30;99.90;;;;;;5071779;28;20109;-68
2023/09/10 05:13:17;;;;;;;44.05;28.63;;;20.30;99.90;;;;;;5071588;28;20095;-68
2023/09/10 05:15:47;;;;;;;45.95;28.95;;;20.30;99.90;;;;;;5071914;28;20097;-68
2023/09/10 05:18:13;;;;;;;46.28;30.52;;;20.20;99.90;;;;;;5071603;28;20029;-68
2023/09/10 05:20:39;;;;;;;54.72;31.80;;;20.30;99.90;;;;;;5071426;28;20375;-66
2023/09/10 05:23:04;;;;;;;54.03;33.00;;;20.20;99.90;;;;;;5071356;28;20025;-68
2023/09/10 05:25:30;;;;;;;46.30;30.77;;;20.30;99.90;;;;;;5071430;28;20072;-68
2023/09/10 05:27:56;;;;;;;50.47;32.50;;;20.30;99.90;;;;;;5071873;28;20039;-68
2023/09/10 05:30:22;;;;;;;48.40;32.60;;;20.20;99.90;;;;;;5071396;28;20025;-67
2023/09/10 05:32:47;;;;;;;54.03;32.42;;;20.30;99.90;;;;;;5071267;28;20032;-67
2023/09/10 05:35:13;;;;;;;53.10;31.90;;;20.30;99.90;;;;;;5071252;28;20071;-68
2023/09/10 05:37:39;;;;;;;55.72;32.83;;;20.30;99.90;;;;;;5071095;28;20036;-68
2023/09/10 05:40:05;;;;;;;46.63;30.73;;;20.30;99.90;;;;;;5071754;28;20054;-67
2023/09/10 05:42:31;;;;;;;47.35;31.77;;;20.40;99.90;;;;;;5071237;28;20492;-67
2023/09/10 05:44:56;;;;;;;51.35;32.78;;;20.40;99.90;;;;;;5071207;28;20020;-68
2023/09/10 05:47:22;;;;;;;51.10;34.20;;;20.40;99.90;;;;;;5069437;28;20040;-68
2023/09/10 05:49:50;;;;;;;45.92;32.42;;;20.30;99.90;;;;;;5070059;28;20033;-68
2023/09/10 05:52:16;;;;;;;49.25;32.08;;;20.30;99.90;;;;;;5070738;28;20382;-68
2023/09/10 05:54:41;;;;;;;49.15;32.50;;;20.40;99.90;;;;;;5071406;28;20171;-67
2023/09/10 05:57:07;;;;;;;49.40;33.22;;;20.40;99.90;;;;;;5071005;28;20470;-68
2023/09/10 05:59:32;;;;;;;45.95;30.92;;;20.40;99.90;;;;;;5070962;28;20388;-68
2023/09/10 06:01:58;;;;;;;47.22;31.00;;;20.50;99.90;;;;;;5070764;28;20462;-68
2023/09/10 06:04:24;;;;;;;48.72;33.42;;;20.50;99.90;;;;;;5070898;28;20042;-67
2023/09/10 06:06:49;;;;;;;49.88;33.00;;;20.50;99.90;;;;;;5071040;28;20051;-68
2023/09/10 06:09:15;;;;;;;51.08;32.38;;;20.40;99.90;;;;;;5070547;28;20025;-68
2023/09/10 06:11:40;;;;;;;52.65;32.63;;;20.40;99.90;;;;;;5070898;28;20032;-67
2023/09/10 06:14:06;;;;;;;48.78;33.30;;;20.50;99.90;;;;;;5069774;28;20032;-68
2023/09/10 06:16:31;;;;;;;49.55;31.77;;;20.60;99.90;;;;;;5071158;28;20017;-68
2023/09/10 06:18:58;;;;;;;46.92;31.30;;;20.50;99.90;;;;;;5071308;28;20032;-68
2023/09/10 06:21:23;;;;;;;53.10;33.45;;;20.60;99.90;;;;;;5069620;28;20036;-67
2023/09/10 06:23:49;;;;;;;51.58;31.95;;;20.60;99.90;;;;;;5070544;28;20051;-68
2023/09/10 06:26:14;;;;;;;55.58;34.42;;;20.60;99.90;;;;;;5070622;28;20453;-67
2023/09/10 06:28:40;;;;;;;49.10;32.28;;;20.70;99.90;;;;;;5070624;28;20135;-68
2023/09/10 06:31:06;;;;;;;56.30;32.88;;;20.70;99.90;;;;;;5070520;28;20047;-67
2023/09/10 06:33:33;;;;;;;53.60;33.75;;;20.70;99.90;;;;;;5070831;28;20017;-68
2023/09/10 06:36:00;;;;;;;46.40;32.70;;;20.80;99.90;;;;;;5069505;28;20093;-67
2023/09/10 06:38:27;;;;;;;52.20;32.72;;;20.80;99.90;;;;;;5070707;28;20054;-67
2023/09/10 06:40:52;;;;;;;55.83;34.40;;;20.80;99.90;;;;;;5070421;28;20189;-67
2023/09/10 06:43:18;;;;;;;51.55;33.20;;;20.70;99.90;;;;;;5070940;28;20493;-68
2023/09/10 06:45:43;;;;;;;55.67;35.55;;;20.80;99.90;;;;;;5070842;28;20025;-68
2023/09/10 06:48:09;;;;;;;48.63;34.25;;;20.90;99.90;;;;;;5070607;28;20037;-68
2023/09/10 06:50:35;;;;;;;56.13;35.67;;;20.80;99.90;;;;;;5070316;28;20033;-69
2023/09/10 06:53:00;;;;;;;58.05;35.70;;;20.90;99.90;;;;;;5070415;28;20090;-67
2023/09/10 06:55:26;;;;;;;49.97;33.88;;;20.90;99.90;;;;;;5070707;28;20029;-67
2023/09/10 06:57:52;;;;;;;51.05;34.40;;;21.00;99.90;;;;;;5070701;28;20032;-69
2023/09/10 07:00:18;;;;;;;50.78;34.45;;;20.90;99.90;;;;;;5071943;28;20058;-69
2023/09/10 07:02:44;;;;;;;51.53;34.47;;;21.10;99.90;;;;;;5073873;28;20021;-68
2023/09/10 07:05:10;;;;;;;54.42;32.80;;;21.10;99.90;;;;;;5073823;28;20043;-66
2023/09/10 07:07:36;;;;;;;48.90;33.30;;;21.20;99.90;;;;;;5074017;28;20041;-68
2023/09/10 07:10:02;;;;;;;46.95;32.42;;;21.30;99.90;;;;;;5074199;28;20442;-68
2023/09/10 07:12:28;;;;;;;52.10;34.72;;;21.30;99.90;;;;;;5073796;28;20037;-67
2023/09/10 07:14:53;;;;;;;49.38;35.08;;;21.30;99.90;;;;;;5073851;28;20036;-69
2023/09/10 07:17:19;;;;;;;52.08;33.97;;;21.40;99.90;;;;;;5073685;28;20063;-67
2023/09/10 07:19:45;;;;;;;52.80;34.65;;;21.40;99.90;;;;;;5073679;28;20038;-67
2023/09/10 07:22:10;;;;;;;49.20;32.97;;;21.50;99.90;;;;;;5073673;28;20397;-68
2023/09/10 07:24:36;;;;;;;51.42;34.28;;;21.60;99.90;;;;;;5073820;28;20449;-67
2023/09/10 07:27:02;;;;;;;58.40;35.13;;;21.60;99.90;;;;;;5073413;28;20028;-69
2023/09/10 07:29:28;;;;;;;47.05;32.80;;;21.60;99.90;;;;;;5073592;28;20111;-68
2023/09/10 07:31:54;;;;;;;43.85;31.60;;;21.70;99.90;;;;;;5086279;28;20127;-67
2023/09/10 07:34:21;;;;;;;45.35;30.95;;;21.80;99.90;;;;;;5093766;28;20450;-69
2023/09/10 07:36:47;;;;;;;47.22;31.85;;;21.90;99.90;;;;;;5094345;28;20069;-67
2023/09/10 07:39:13;;;;;;;49.63;33.08;;;21.90;99.90;;;;;;5093612;28;20473;-68
2023/09/10 07:41:39;;;;;;;44.10;31.40;;;21.90;99.90;;;;;;5093548;28;20396;-67
2023/09/10 07:44:05;;;;;;;46.03;31.33;;;21.90;99.90;;;;;;5093586;28;20025;-68
2023/09/10 07:46:33;;;;;;;46.45;31.73;;;22.00;99.90;;;;;;5093300;28;20066;-68
2023/09/10 07:48:58;;;;;;;;;;;22.10;99.90;;;;;;5094382;28;20469;-69
2023/09/10 07:51:24;;;;;;;49.83;31.08;;;22.20;99.90;;;;;;5093453;28;19911;-67
2023/09/10 07:53:50;;;;;;;47.35;31.48;;;22.20;99.90;;;;;;5093675;28;20354;-68
2023/09/10 07:56:16;;;;;;;44.28;29.17;;;22.20;99.90;;;;;;5093294;28;20029;-67
2023/09/10 07:58:41;;;;;;;47.28;30.58;;;22.20;99.90;;;;;;5093417;28;20042;-67
2023/09/10 08:01:07;;;;;;;40.85;28.77;;;22.30;99.90;;;;;;5093209;28;20039;-67
2023/09/10 08:03:34;;;;;;;47.05;30.75;;;22.50;99.90;;;;;;5093741;28;20035;-67
2023/09/10 08:06:00;;;;;;;41.00;29.95;;;22.60;99.90;;;;;;5093133;28;20036;-68
2023/09/10 08:08:26;;;;;;;44.10;29.13;;;22.70;99.90;;;;;;5091587;28;20054;-67
2023/09/10 08:10:51;;;;;;;41.17;28.25;;;22.70;99.90;;;;;;5091550;28;20036;-68
2023/09/10 08:13:17;;;;;;;39.45;28.02;;;22.80;99.90;;;;;;5093247;28;20020;-69
2023/09/10 08:15:43;;;;;;;37.97;26.17;;;22.80;99.90;;;;;;5093552;28;20592;-69
2023/09/10 08:18:11;;;;;;;39.08;27.40;;;22.90;99.90;;;;;;5092975;28;20021;-68
2023/09/10 08:20:41;;;;;;;39.70;25.42;;;23.10;99.90;;;;;;5092690;28;20107;-68
2023/09/10 08:23:07;;;;;;;33.03;24.40;;;23.60;99.90;;;;;;5092983;28;20419;-67
2023/09/10 08:25:33;;;;;;;30.83;22.20;;;24.50;99.90;;;;;;5092685;28;20110;-67
2023/09/10 08:27:59;;;;;;;32.55;21.95;;;25.00;99.30;;;;;;5091970;28;20492;-69
2023/09/10 08:30:26;;;;;;;33.17;20.77;;;25.20;99.10;;;;;;5092500;28;20028;-69
2023/09/10 08:32:51;;;;;;;31.23;20.63;;;25.70;98.00;;;;;;5092485;28;20077;-70
2023/09/10 08:35:22;;;;;;;32.53;22.63;;;26.00;97.30;;;;;;5092576;28;20028;-72
2023/09/10 08:37:48;;;;;;;29.92;20.08;;;26.80;97.20;;;;;;5092559;28;20115;-69
2023/09/10 08:40:15;;;;;;;26.00;17.60;;;28.20;95.60;;;;;;5092941;28;20107;-69
2023/09/10 08:42:51;;;;;;;26.48;17.42;;;29.50;93.70;;;;;;5092858;28;20016;-69
2023/09/10 08:45:17;;;;;;;24.80;16.00;;;30.70;92.00;;;;;;5092117;28;20400;-72
2023/09/10 08:47:47;;;;;;;21.50;13.60;;;31.40;89.20;;;;;;5091989;28;20110;-73
2023/09/10 08:50:14;;;;;;;21.95;13.77;;;32.10;87.50;;;;;;5092207;28;20482;-72
2023/09/10 08:52:42;;;;;;;26.30;14.83;;;32.60;86.00;;;;;;5092001;28;20455;-71
2023/09/10 08:55:09;;;;;;;19.85;13.95;;;32.50;80.40;;;;;;5092058;28;20042;-73
2023/09/10 08:57:40;;;;;;;23.52;15.52;;;32.40;79.90;;;;;;5091372;28;20460;-73
2023/09/10 09:00:14;;;;;;;18.25;12.63;;;33.00;79.30;;;;;;5092037;28;20043;-73
2023/09/10 09:02:41;;;;;;;23.75;13.05;;;34.10;78.90;;;;;;5091952;28;20470;-75
2023/09/10 09:05:07;;;;;;;17.95;12.73;;;34.70;76.20;;;;;;5091775;28;20044;-74
2023/09/10 09:07:47;;;;;;;19.10;13.60;;;35.10;73.40;;;;;;5091672;28;20036;-73
2023/09/10 09:10:18;;;;;;;14.73;10.63;;;35.30;70.20;;;;;;5091898;28;20027;-75
2023/09/10 09:12:45;;;;;;;13.98;9.68;;;35.40;73.00;;;;;;5092169;28;20107;-72
2023/09/10 09:15:11;;;;;;;;;;;36.20;69.60;;;;;;5092359;28;20123;-74
2023/09/10 09:17:40;;;;;;;16.17;11.10;;;36.70;66.30;;;;;;5091801;28;20002;-72
2023/09/10 09:20:11;;;;;;;13.73;9.80;;;37.00;64.20;;;;;;5091645;28;20116;-72
2023/09/10 09:22:41;;;;;;;14.73;11.18;;;37.10;65.40;;;;;;5089879;28;20119;-68
2023/09/10 09:25:07;;;;;;;16.52;10.90;;;37.50;62.30;;;;;;5091640;28;20415;-69
2023/09/10 09:27:34;;;;;;;15.25;10.35;;;38.00;60.60;;;;;;5092048;28;20114;-72
2023/09/10 09:30:05;;;;;;;13.50;10.17;;;37.50;61.40;;;;;;5091757;28;20112;-72
2023/09/10 09:32:34;;;;;;;17.13;11.55;;;38.10;60.90;;;;;;5091295;28;20742;-70
2023/09/10 09:34:59;;;;;;;13.05;10.23;;;38.80;59.80;;;;;;5091371;28;20047;-70
2023/09/10 09:37:25;;;;;;;15.68;11.50;;;38.60;57.80;;;;;;5091307;28;20044;-70
2023/09/10 09:39:50;;;;;;;16.70;11.50;;;38.30;58.20;;;;;;5091855;28;20027;-70
2023/09/10 09:42:16;;;;;;;11.82;10.32;;;38.60;57.70;;;;;;5091613;28;20458;-74
2023/09/10 09:44:44;;;;;;;14.13;10.05;;;38.70;57.60;;;;;;5091536;28;20028;-69
2023/09/10 09:47:13;;;;;;;15.15;10.93;;;38.80;58.00;;;;;;5091422;28;20051;-69
2023/09/10 09:49:46;;;;;;;13.98;11.32;;;37.60;57.00;;;;;;5091323;28;20036;-71
2023/09/10 09:52:12;;;;;;;14.07;10.57;;;36.80;58.50;;;;;;5090021;28;20028;-69
2023/09/10 09:54:39;;;;;;;13.57;10.35;;;38.00;57.00;;;;;;5091779;28;20024;-69
2023/09/10 09:57:05;;;;;;;12.32;9.88;;;38.70;56.60;;;;;;5091110;28;20095;-70
2023/09/10 09:59:35;;;;;;;11.95;9.68;;;39.00;56.20;;;;;;5091481;28;20381;-70
2023/09/10 10:02:01;;;;;;;12.93;9.68;;;38.50;54.70;;;;;;5090091;28;20028;-68
2023/09/10 10:04:31;;;;;;;13.25;8.90;;;38.90;54.60;;;;;;5091284;28;20337;-69
2023/09/10 10:06:56;;;;;;;12.65;9.75;;;39.50;54.70;;;;;;5090091;28;20048;-70
2023/09/10 10:09:22;;;;;;;13.73;9.43;;;39.40;54.00;;;;;;5091110;28;20107;-74
2023/09/10 10:11:48;;;;;;;14.35;8.93;;;39.50;53.80;;;;;;5091090;28;20458;-70
2023/09/10 10:14:14;;;;;;;10.48;8.65;;;39.80;53.60;;;;;;5091019;28;20024;-72
2023/09/10 10:16:40;;;;;;;12.73;9.40;;;39.00;53.70;;;;;;5089979;28;20502;-70
2023/09/10 10:19:07;;;;;;;10.95;7.38;;;39.30;53.50;;;;;;5090765;28;20047;-69
2023/09/10 10:21:33;;;;;;;14.10;9.40;;;40.40;53.90;;;;;;5091233;28;20598;-71
2023/09/10 10:24:00;;;;;;;11.80;9.23;;;39.40;51.70;;;;;;5090719;28;20032;-69
2023/09/10 10:26:28;;;;;;;12.70;8.07;;;38.80;53.50;;;;;;5090751;28;20600;-75
2023/09/10 10:28:55;;;;;;;11.95;9.02;;;39.90;52.90;;;;;;5090690;28;20040;-71
2023/09/10 10:31:29;;;;;;;12.15;8.70;;;38.70;53.10;;;;;;5090757;28;20047;-72
2023/09/10 10:34:05;;;;;;;8.23;7.35;;;39.00;53.00;;;;;;5092016;28;20031;-72
2023/09/10 10:36:49;;;;;;;10.68;7.57;;;39.80;52.50;;;;;;5095087;28;20040;-72
2023/09/10 10:39:17;;;;;;;10.43;7.55;;;40.20;52.10;;;;;;5094736;28;20029;-71
2023/09/10 10:41:47;;;;;;;11.07;7.35;;;38.50;52.80;;;;;;5094849;28;20032;-71
2023/09/10 10:44:21;;;;;;;9.85;7.72;;;39.20;52.40;;;;;;5093703;28;20036;-71
2023/09/10 10:46:55;;;;;;;9.30;6.95;;;40.00;51.60;;;;;;5094862;28;20040;-71
2023/09/10 10:49:22;;;;;;;9.43;7.60;;;40.20;51.80;;;;;;5092911;28;20034;-70
2023/09/10 10:51:51;;;;;;;10.47;7.10;;;40.90;50.10;;;;;;5092524;28;20491;-71
2023/09/10 10:54:17;;;;;;;10.50;6.95;;;41.10;49.80;;;;;;5091710;28;20472;-71
2023/09/10 10:56:43;;;;;;;12.30;7.13;;;41.40;49.30;;;;;;5092749;28;20051;-71
2023/09/10 10:59:09;;;;;;;12.45;7.68;;;41.50;48.80;;;;;;5093031;28;20024;-71
2023/09/10 11:01:35;;;;;;;11.02;7.28;;;39.50;49.20;;;;;;5091590;28;20379;-70
2023/09/10 11:04:24;;;;;;;10.60;7.63;;;38.90;51.20;;;;;;5094848;28;20534;-72
2023/09/10 11:07:16;;;;;;;11.70;6.20;;;38.80;49.80;;;;;;5094151;28;20055;-70
2023/09/10 11:09:42;;;;;;;9.82;6.13;;;38.20;50.60;;;;;;5094378;28;20036;-70
2023/09/10 11:12:08;;;;;;;11.57;6.10;;;38.80;50.60;;;;;;5094147;28;20032;-70
2023/09/10 11:15:00;;;;;;;8.93;6.13;;;38.20;50.40;;;;;;5094246;28;20480;-70
2023/09/10 11:17:33;;;;;;;6.95;5.45;;;38.50;50.60;;;;;;5088942;28;20098;-71
2023/09/10 11:20:00;;;;;;;9.68;6.18;;;38.90;49.40;;;;;;5093730;28;20032;-70
2023/09/10 11:22:26;;;;;;;10.45;6.15;;;38.60;49.60;;;;;;5093728;28;20036;-69
2023/09/10 11:25:05;;;;;;;10.30;5.43;;;38.40;50.70;;;;;;5093199;28;20020;-69
2023/09/10 11:27:33;;;;;;;8.48;5.75;;;37.60;49.90;;;;;;5093740;28;20092;-70
2023/09/10 11:30:19;;;;;;;6.97;5.50;;;35.90;51.40;;;;;;5093551;28;20029;-70
2023/09/10 11:32:45;;;;;;;12.60;5.70;;;35.80;52.50;;;;;;5093441;28;20496;-69
2023/09/10 11:35:17;;;;;;;6.47;4.95;;;35.70;52.20;;;;;;5093656;28;20040;-71
2023/09/10 11:37:48;;;;;;;6.95;5.65;;;34.80;52.60;;;;;;5093714;28;20055;-70
2023/09/10 11:40:14;;;;;;;9.38;5.55;;;35.20;53.10;;;;;;5093694;28;20044;-70
2023/09/10 11:42:45;;;;;;;9.13;5.45;;;35.00;53.30;;;;;;5094171;28;20089;-70
2023/09/10 11:45:11;;;;;;;6.20;4.70;;;34.70;54.00;;;;;;5092768;28;20036;-70
2023/09/10 11:47:41;;;;;;;7.03;4.72;;;34.40;53.70;;;;;;5093348;28;20024;-71
2023/09/10 11:50:09;;;;;;;6.20;4.80;;;34.00;54.40;;;;;;5093173;28;20505;-72
2023/09/10 11:52:34;;;;;;;;;;;33.80;54.60;;;;;;5093532;28;20458;-70
2023/09/10 11:55:00;;;;;;;7.05;4.82;;;33.00;55.40;;;;;;5093564;28;19915;-72
2023/09/10 11:57:26;;;;;;;6.88;4.35;;;33.10;55.50;;;;;;5092975;28;20036;-71
2023/09/10 11:59:52;;;;;;;11.75;5.15;;;33.20;55.50;;;;;;5093101;28;20424;-70
2023/09/10 12:02:23;;;;;;;8.07;4.60;;;33.00;55.40;;;;;;5092840;28;20035;-70
2023/09/10 12:04:49;;;;;;;8.65;4.57;;;32.50;55.80;;;;;;5093100;28;20032;-71
2023/09/10 12:07:15;;;;;;;5.57;4.07;;;32.60;55.90;;;;;;5092820;28;20052;-70
2023/09/10 12:09:41;;;;;;;12.90;4.85;;;32.50;56.20;;;;;;5092288;28;20317;-70
2023/09/10 12:12:12;;;;;;;5.60;4.53;;;32.50;56.20;;;;;;5093047;28;20167;-70
2023/09/10 12:14:38;;;;;;;6.30;5.10;;;32.50;56.40;;;;;;5092860;28;20126;-70
2023/09/10 12:17:04;;;;;;;6.80;4.63;;;32.10;56.90;;;;;;5092806;28;20145;-70
2023/09/10 12:19:31;;;;;;;6.55;5.22;;;32.00;57.30;;;;;;5092986;28;20484;-70
2023/09/10 12:21:57;;;;;;;6.60;4.85;;;32.00;57.30;;;;;;5093056;28;20020;-71
2023/09/10 12:24:23;;;;;;;9.05;4.63;;;32.10;57.20;;;;;;5092438;28;20083;-72
2023/09/10 12:26:49;;;;;;;6.30;4.68;;;32.10;57.00;;;;;;5092492;28;20048;-71
2023/09/10 12:29:15;;;;;;;6.82;3.97;;;32.00;56.90;;;;;;5091396;28;20036;-70
2023/09/10 12:31:41;;;;;;;5.97;4.35;;;32.00;56.70;;;;;;5091291;28;20488;-70
2023/09/10 12:34:09;;;;;;;5.35;3.67;;;32.00;56.30;;;;;;5092284;28;20333;-70
2023/09/10 12:36:34;;;;;;;;;;;32.00;56.10;;;;;;5092207;28;20112;-70